Thursday, November 23, 2017, 9:36 AM GMT
Back to Local

CYPQ, Peterborough Airport

Location: , , Canada Lat: 44.233
Local Time: 9:36 AM GMT ( 9:36 GMT) Lon: -78.367
Time Zone: GMT Elev: 626 ft

Show me the last for .
Show Decoded

2017-11-23 09:00 METAR CYPQ 230900Z AUTO 00000KT 9SM OVC032 M05/M07 A3011 RMK SLP210 =
2017-11-23 08:00 METAR CYPQ 230800Z AUTO 00000KT 9SM OVC032 M06/M07 A3013 RMK SLP214 =
2017-11-23 07:00 METAR CYPQ 230700Z AUTO VRB02KT 9SM OVC034 M06/M07 A3013 RMK SLP216 =
2017-11-23 06:00 METAR CYPQ 230600Z AUTO VRB02KT 9SM OVC038 M07/M08 A3014 RMK SLP218 =
2017-11-23 05:00 METAR CYPQ 230500Z AUTO 27004KT 9SM BKN036 M08/M09 A3017 RMK SLP228 =
2017-11-23 04:00 METAR CYPQ 230400Z AUTO 21003KT 9SM FEW190 M08/M08 A3017 RMK SLP230 =
2017-11-23 03:00 METAR CYPQ 230300Z AUTO 27003KT 9SM FEW180 M09/M09 A3018 RMK SLP232 =
2017-11-23 02:00 METAR CYPQ 230200Z AUTO 29003KT 9SM FEW030 M06/M09 A3019 RMK SLP234 =
2017-11-23 01:00 METAR CYPQ 230100Z AUTO 31004KT 9SM BKN030 M06/M09 A3019 RMK SLP234 =
2017-11-23 00:00 METAR CYPQ 230000Z AUTO 35005KT 9SM BKN032 M06/M09 A3019 RMK SLP235 =
2017-11-22 23:00 METAR CYPQ 222300Z AUTO 33007KT 9SM CLR M05/M08 A3019 RMK SLP234 =
2017-11-22 22:00 METAR CYPQ 222200Z AUTO 32005KT 9SM SCT028 M05/M08 A3017 RMK SLP226 =
2017-11-22 21:00 METAR CYPQ 222100Z AUTO 32009G17KT 9SM OVC029 M04/M08 A3016 RMK SLP224 =
2017-11-22 20:19 METAR CYPQ 222019Z AUTO 32013KT 9SM OVC025 M04/M08 A3015 RMK SLP221 =
2017-11-22 20:04 METAR CYPQ 222004Z AUTO 33014G19KT 9SM OVC023 M04/M07 A3014 RMK SLP218 =
2017-11-22 20:00 METAR CYPQ 222000Z AUTO 33013G19KT 9SM -SN OVC023 M04/M08 A3014 RMK SLP218 =
2017-11-22 19:54 METAR CYPQ 221954Z AUTO 32015KT 9SM -SN OVC023 M04/M07 A3014 RMK SLP217 =
2017-11-22 19:04 METAR CYPQ 221904Z AUTO 32010G19KT 9SM OVC021 M03/M06 A3011 RMK SLP207 =
2017-11-22 19:00 METAR CYPQ 221900Z AUTO 31011G19KT 9SM -SN OVC021 M03/M06 A3011 RMK SLP207 =
2017-11-22 18:54 METAR CYPQ 221854Z AUTO 30013KT 9SM -SN OVC021 M03/M06 A3011 RMK SLP205 =
2017-11-22 18:44 METAR CYPQ 221844Z AUTO 31010G17KT 9SM OVC021 M03/M06 A3011 RMK SLP206 =
2017-11-22 18:33 METAR CYPQ 221833Z AUTO 30010G19KT 9SM -SN OVC023 M03/M06 A3011 RMK SLP208 =
2017-11-22 18:21 METAR CYPQ 221821Z AUTO 30013G18KT 9SM OVC023 M03/M06 A3011 RMK SLP208 =
2017-11-22 18:00 METAR CYPQ 221800Z AUTO 31014G20KT 9SM OVC025 M02/M06 A3011 RMK SLP206 =
2017-11-22 17:59 METAR CYPQ 221759Z AUTO 30015G20KT 9SM OVC025 M02/M06 A3011 RMK SLP205 =
2017-11-22 17:54 METAR CYPQ 221754Z AUTO 31011G16KT 9SM BKN023 OVC028 M02/M05 A3010 RMK SLP204 =
2017-11-22 17:46 METAR CYPQ 221746Z AUTO 31011G17KT 9SM BKN025 OVC037 M01/M05 A3010 RMK SLP203 =
2017-11-22 17:41 METAR CYPQ 221741Z AUTO 32011G16KT 9SM BKN023 BKN028 OVC037 M02/M05 A3010 RMK
                 SLP203 =
2017-11-22 17:39 METAR CYPQ 221739Z AUTO 33012G17KT 9SM BKN025 OVC037 M02/M05 A3010 RMK SLP203 =
2017-11-22 17:37 METAR CYPQ 221737Z AUTO 33012G18KT 9SM BKN023 BKN028 OVC037 M02/M05 A3010 RMK
                 SLP203 =
2017-11-22 17:00 METAR CYPQ 221700Z AUTO 32013G18KT 9SM FEW021 OVC039 M01/M05 A3010 RMK SLP204 =
2017-11-22 16:13 METAR CYPQ 221613Z AUTO 31015G22KT 9SM SCT021 OVC039 M02/M05 A3010 RMK SLP203 =
2017-11-22 16:07 METAR CYPQ 221607Z AUTO 30015G22KT 9SM -SN SCT021 OVC039 M02/M05 A3011 RMK
                 SLP206 =
2017-11-22 16:00 METAR CYPQ 221600Z AUTO 29018KT 9SM -SN BKN021 OVC039 M02/M05 A3011 RMK SLP206 =
2017-11-22 15:55 METAR CYPQ 221555Z AUTO 29014G22KT 9SM -SN BKN019 OVC039 M02/M04 A3011 RMK
                 SLP206 =
2017-11-22 15:47 METAR CYPQ 221547Z AUTO 30012G18KT 9SM BKN019 OVC039 M01/M04 A3011 RMK SLP205 =
2017-11-22 15:00 METAR CYPQ 221500Z AUTO 31016G23KT 9SM SCT019 OVC043 M01/M04 A3009 RMK SLP198 =
2017-11-22 14:51 METAR CYPQ 221451Z AUTO 31015G20KT 9SM SCT019 OVC043 M01/M03 A3008 RMK SLP197 =
2017-11-22 14:38 METAR CYPQ 221438Z AUTO 29013G21KT 9SM BKN019 OVC045 M01/M03 A3008 RMK SLP195 =
2017-11-22 14:00 METAR CYPQ 221400Z AUTO 32012G19KT 9SM FEW034 OVC043 M01/M03 A3007 RMK SLP190 =
2017-11-22 13:36 METAR CYPQ 221336Z AUTO 30014G19KT 9SM SCT014 SCT019 BKN033 OVC045 M01/M02 A3006
                 RMK SLP187 =
2017-11-22 13:28 METAR CYPQ 221328Z AUTO 31008G18KT 9SM BKN014 BKN019 OVC045 M01/M02 A3005 RMK
                 SLP185 =
2017-11-22 13:14 METAR CYPQ 221314Z AUTO 30012G17KT 7SM -SN BKN012 OVC018 M01/M01 A3005 RMK
                 SLP183 =
2017-11-22 13:12 METAR CYPQ 221312Z AUTO 30014KT 3SM -SN BKN012 OVC018 M01/M01 A3005 RMK SLP183 =
2017-11-22 13:11 METAR CYPQ 221311Z AUTO 30014KT 2 1/2SM -SN BKN012 OVC018 M01/M01 A3005 RMK
                 SLP183 =
2017-11-22 13:10 METAR CYPQ 221310Z AUTO 30012G18KT 1 3/4SM -SN BKN012 OVC018 M01/M01 A3005 RMK
                 SLP183 =
2017-11-22 13:00 METAR CYPQ 221300Z AUTO 29010G16KT 5/8SM -SN SCT010 OVC016 M01/M01 A3004 RMK
                 PRESRR SLP181 =
2017-11-22 12:55 METAR CYPQ 221255Z AUTO 29013G20KT 1 1/4SM -SN FEW010 OVC016 M01/M01 A3004 RMK
                 PRESRR SLP180 =
2017-11-22 12:53 METAR CYPQ 221253Z AUTO 29012G20KT 2SM -SN BKN014 OVC019 M01/M01 A3004 RMK
                 PRESRR SLP179 =
2017-11-22 12:52 METAR CYPQ 221252Z AUTO 29013G20KT 2 1/2SM -SN BKN012 OVC019 M00/M01 A3004 RMK
                 PRESRR SLP179 =
2017-11-22 12:49 METAR CYPQ 221249Z AUTO 29014G19KT 4SM -SN BKN014 OVC019 M00/M01 A3003 RMK
                 PRESRR SLP177 =
2017-11-22 12:43 METAR CYPQ 221243Z AUTO 29012G20KT 4SM -RASN OVC012 M00/M01 A3002 RMK SLP175 =
2017-11-22 12:41 METAR CYPQ 221241Z AUTO 29015G20KT 5SM -RA BR OVC012 M00/M01 A3002 RMK SLP174 =
2017-11-22 12:39 METAR CYPQ 221239Z AUTO 28016KT 5SM -RASN OVC014 M00/M01 A3002 RMK SLP174 =
2017-11-22 12:37 METAR CYPQ 221237Z AUTO 29014KT 7SM -RASN OVC014 00/M01 A3002 RMK PRESRR SLP173
                 =
2017-11-22 12:34 METAR CYPQ 221234Z AUTO 29011G16KT 6SM -SN OVC014 00/M00 A3002 RMK PRESRR SLP173
                 =
2017-11-22 12:24 METAR CYPQ 221224Z AUTO 28011KT 4SM -SN BKN016 OVC044 00/M00 A3001 RMK SLP169 =
2017-11-22 12:23 METAR CYPQ 221223Z AUTO 28011KT 5SM BR BKN016 OVC044 00/M00 A3001 RMK SLP169 =
2017-11-22 12:11 METAR CYPQ 221211Z AUTO 28008KT 9SM SCT016 BKN023 OVC042 00/M01 A3000 RMK SLP166
                 =
2017-11-22 12:10 METAR CYPQ 221210Z AUTO 28009KT 9SM SCT018 OVC042 00/M01 A3000 RMK SLP166 =
2017-11-22 12:06 METAR CYPQ 221206Z AUTO 28008KT 9SM SCT016 BKN024 OVC042 00/M01 A3000 RMK SLP166
                 =
2017-11-22 12:05 METAR CYPQ 221205Z AUTO 28008KT 9SM SCT016 SCT024 OVC042 00/M01 A3000 RMK SLP166
                 =
2017-11-22 12:00 METAR CYPQ 221200Z AUTO 27008KT 9SM BKN016 BKN024 OVC042 00/M01 A3000 RMK SLP166
                 =
2017-11-22 11:52 METAR CYPQ 221152Z AUTO 27009KT 9SM SCT016 BKN020 BKN027 OVC042 00/M01 A3000 RMK
                 SLP166 =
2017-11-22 11:44 METAR CYPQ 221144Z AUTO 27008KT 9SM -SN SCT016 BKN020 BKN025 OVC044 00/M01 A2999
                 RMK SLP165 =
2017-11-22 11:43 METAR CYPQ 221143Z AUTO 26009KT 9SM -SN SCT016 BKN025 OVC044 00/M01 A2999 RMK
                 SLP165 =
2017-11-22 11:38 METAR CYPQ 221138Z AUTO 25008KT 9SM -SN SCT016 BKN021 BKN025 OVC044 01/M01 A2999
                 RMK SLP163 =
2017-11-22 11:34 METAR CYPQ 221134Z AUTO 25008KT 9SM -SN SCT019 BKN025 BKN035 OVC044 01/M01 A2999
                 RMK SLP162 =
2017-11-22 11:00 METAR CYPQ 221100Z AUTO 26008KT 9SM OVC039 01/M01 A2997 RMK SLP157 =
2017-11-22 10:00 METAR CYPQ 221000Z AUTO 26005KT 9SM SCT031 OVC039 01/M00 A2994 RMK SLP147 =

Support USWX by starting your Amazon purchase here.